sensor_id;sensor_type;location;lat;lon;timestamp;temperature;humidity
1137;DHT22;557;48.466;7.950;2023-03-14T00:01:19;11.10;99.90
1137;DHT22;557;48.466;7.950;2023-03-14T00:04:07;11.20;99.90
1137;DHT22;557;48.466;7.950;2023-03-14T00:06:55;11.20;99.90
1137;DHT22;557;48.466;7.950;2023-03-14T00:09:43;11.20;99.90
1137;DHT22;557;48.466;7.950;2023-03-14T00:12:31;11.20;99.90
1137;DHT22;557;48.466;7.950;2023-03-14T00:15:18;11.20;99.90
1137;DHT22;557;48.466;7.950;2023-03-14T00:18:06;11.20;99.90
1137;DHT22;557;48.466;7.950;2023-03-14T00:20:53;11.20;99.90
1137;DHT22;557;48.466;7.950;2023-03-14T00:23:42;11.20;99.90
1137;DHT22;557;48.466;7.950;2023-03-14T00:26:30;11.20;99.90
1137;DHT22;557;48.466;7.950;2023-03-14T00:29:17;11.20;99.90
1137;DHT22;557;48.466;7.950;2023-03-14T00:32:04;11.20;99.90
1137;DHT22;557;48.466;7.950;2023-03-14T00:34:52;11.20;99.90
1137;DHT22;557;48.466;7.950;2023-03-14T00:37:39;11.20;99.90
1137;DHT22;557;48.466;7.950;2023-03-14T00:40:28;11.20;99.90
1137;DHT22;557;48.466;7.950;2023-03-14T00:43:15;11.30;98.00
1137;DHT22;557;48.466;7.950;2023-03-14T00:46:03;11.20;99.90
1137;DHT22;557;48.466;7.950;2023-03-14T00:48:54;11.20;99.40
1137;DHT22;557;48.466;7.950;2023-03-14T00:51:41;11.20;81.40
1137;DHT22;557;48.466;7.950;2023-03-14T00:54:29;11.30;36.60
1137;DHT22;557;48.466;7.950;2023-03-14T00:57:18;11.40;1.00
1137;DHT22;557;48.466;7.950;2023-03-14T01:00:06;11.40;3.90
1137;DHT22;557;48.466;7.950;2023-03-14T01:02:57;11.40;1.00
1137;DHT22;557;48.466;7.950;2023-03-14T01:05:44;11.40;1.00
1137;DHT22;557;48.466;7.950;2023-03-14T01:08:33;11.30;1.30
1137;DHT22;557;48.466;7.950;2023-03-14T01:11:23;11.30;13.50
1137;DHT22;557;48.466;7.950;2023-03-14T01:14:13;11.30;10.40
1137;DHT22;557;48.466;7.950;2023-03-14T01:17:01;11.30;1.00
1137;DHT22;557;48.466;7.950;2023-03-14T01:19:48;11.30;1.00
1137;DHT22;557;48.466;7.950;2023-03-14T01:22:36;11.30;1.00
1137;DHT22;557;48.466;7.950;2023-03-14T01:25:24;11.30;1.00
1137;DHT22;557;48.466;7.950;2023-03-14T01:28:12;11.30;1.00
1137;DHT22;557;48.466;7.950;2023-03-14T01:31:04;11.20;1.00
1137;DHT22;557;48.466;7.950;2023-03-14T01:33:51;11.30;1.00
1137;DHT22;557;48.466;7.950;2023-03-14T01:36:39;11.20;8.80
1137;DHT22;557;48.466;7.950;2023-03-14T01:39:26;11.20;1.00
1137;DHT22;557;48.466;7.950;2023-03-14T01:42:15;11.30;1.00
1137;DHT22;557;48.466;7.950;2023-03-14T01:45:05;11.30;1.00
1137;DHT22;557;48.466;7.950;2023-03-14T01:47:54;11.20;1.00
1137;DHT22;557;48.466;7.950;2023-03-14T01:50:41;11.20;1.00
1137;DHT22;557;48.466;7.950;2023-03-14T01:53:29;11.20;1.00
1137;DHT22;557;48.466;7.950;2023-03-14T01:56:17;11.30;1.00
1137;DHT22;557;48.466;7.950;2023-03-14T01:59:07;11.20;1.00
1137;DHT22;557;48.466;7.950;2023-03-14T02:01:55;11.20;1.00
1137;DHT22;557;48.466;7.950;2023-03-14T02:04:44;11.20;1.00
1137;DHT22;557;48.466;7.950;2023-03-14T02:07:45;11.20;1.00
1137;DHT22;557;48.466;7.950;2023-03-14T02:10:38;11.20;1.00
1137;DHT22;557;48.466;7.950;2023-03-14T02:13:26;11.20;1.00
1137;DHT22;557;48.466;7.950;2023-03-14T02:16:13;11.20;1.00
1137;DHT22;557;48.466;7.950;2023-03-14T02:19:00;11.20;1.00
1137;DHT22;557;48.466;7.950;2023-03-14T02:21:55;11.20;1.00
1137;DHT22;557;48.466;7.950;2023-03-14T02:24:49;11.10;1.00
1137;DHT22;557;48.466;7.950;2023-03-14T02:27:39;11.10;1.00
1137;DHT22;557;48.466;7.950;2023-03-14T02:30:28;11.10;1.00
1137;DHT22;557;48.466;7.950;2023-03-14T02:33:18;11.10;1.00
1137;DHT22;557;48.466;7.950;2023-03-14T02:36:09;11.10;1.00
1137;DHT22;557;48.466;7.950;2023-03-14T02:39:06;11.00;1.00
1137;DHT22;557;48.466;7.950;2023-03-14T02:41:54;11.00;1.00
1137;DHT22;557;48.466;7.950;2023-03-14T02:44:51;11.00;1.00
1137;DHT22;557;48.466;7.950;2023-03-14T02:47:44;11.00;1.00
1137;DHT22;557;48.466;7.950;2023-03-14T02:50:34;11.00;1.00
1137;DHT22;557;48.466;7.950;2023-03-14T02:53:24;11.00;99.90
1137;DHT22;557;48.466;7.950;2023-03-14T02:56:12;11.10;99.90
1137;DHT22;557;48.466;7.950;2023-03-14T02:59:02;11.00;99.90
1137;DHT22;557;48.466;7.950;2023-03-14T03:01:51;11.00;99.90
1137;DHT22;557;48.466;7.950;2023-03-14T03:04:38;11.10;1.00
1137;DHT22;557;48.466;7.950;2023-03-14T03:07:27;11.20;1.00
1137;DHT22;557;48.466;7.950;2023-03-14T03:10:15;11.20;1.00
1137;DHT22;557;48.466;7.950;2023-03-14T03:13:02;11.20;1.00
1137;DHT22;557;48.466;7.950;2023-03-14T03:15:50;11.10;1.00
1137;DHT22;557;48.466;7.950;2023-03-14T03:18:39;11.10;1.00
1137;DHT22;557;48.466;7.950;2023-03-14T03:21:26;11.20;99.90
1137;DHT22;557;48.466;7.950;2023-03-14T03:24:24;11.20;1.00
1137;DHT22;557;48.466;7.950;2023-03-14T03:27:12;11.10;99.90
1137;DHT22;557;48.466;7.950;2023-03-14T03:29:59;11.10;99.90
1137;DHT22;557;48.466;7.950;2023-03-14T03:32:46;11.20;1.00
1137;DHT22;557;48.466;7.950;2023-03-14T03:35:41;11.20;57.50
1137;DHT22;557;48.466;7.950;2023-03-14T03:38:28;11.20;99.90
1137;DHT22;557;48.466;7.950;2023-03-14T03:41:15;11.20;1.00
1137;DHT22;557;48.466;7.950;2023-03-14T03:44:03;11.20;1.00
1137;DHT22;557;48.466;7.950;2023-03-14T03:46:51;11.20;99.90
1137;DHT22;557;48.466;7.950;2023-03-14T03:49:39;11.20;1.00
1137;DHT22;557;48.466;7.950;2023-03-14T03:52:27;11.30;1.00
1137;DHT22;557;48.466;7.950;2023-03-14T03:55:15;11.20;1.00
1137;DHT22;557;48.466;7.950;2023-03-14T03:58:02;11.10;1.00
1137;DHT22;557;48.466;7.950;2023-03-14T04:00:49;11.10;1.00
1137;DHT22;557;48.466;7.950;2023-03-14T04:03:37;11.10;1.00
1137;DHT22;557;48.466;7.950;2023-03-14T04:06:25;11.00;1.00
1137;DHT22;557;48.466;7.950;2023-03-14T04:09:14;11.10;1.00
1137;DHT22;557;48.466;7.950;2023-03-14T04:12:01;11.10;1.00
1137;DHT22;557;48.466;7.950;2023-03-14T04:14:48;11.00;23.00
1137;DHT22;557;48.466;7.950;2023-03-14T04:17:36;11.10;1.00
1137;DHT22;557;48.466;7.950;2023-03-14T04:20:23;11.10;51.40
1137;DHT22;557;48.466;7.950;2023-03-14T04:23:10;11.10;99.90
1137;DHT22;557;48.466;7.950;2023-03-14T04:25:59;11.10;41.50
1137;DHT22;557;48.466;7.950;2023-03-14T04:28:47;11.10;99.90
1137;DHT22;557;48.466;7.950;2023-03-14T04:31:34;11.10;99.90
1137;DHT22;557;48.466;7.950;2023-03-14T04:34:21;11.10;99.90
1137;DHT22;557;48.466;7.950;2023-03-14T04:37:09;11.10;99.90
1137;DHT22;557;48.466;7.950;2023-03-14T04:39:56;11.10;1.00
1137;DHT22;557;48.466;7.950;2023-03-14T04:42:45;11.20;1.00
1137;DHT22;557;48.466;7.950;2023-03-14T04:45:32;11.10;99.90
1137;DHT22;557;48.466;7.950;2023-03-14T04:48:20;11.10;99.90
1137;DHT22;557;48.466;7.950;2023-03-14T04:51:07;11.00;1.00
1137;DHT22;557;48.466;7.950;2023-03-14T04:53:55;11.00;1.00
1137;DHT22;557;48.466;7.950;2023-03-14T04:56:42;11.10;99.90
1137;DHT22;557;48.466;7.950;2023-03-14T04:59:37;11.20;99.90
1137;DHT22;557;48.466;7.950;2023-03-14T05:02:32;11.20;99.90
1137;DHT22;557;48.466;7.950;2023-03-14T05:05:19;11.10;1.00
1137;DHT22;557;48.466;7.950;2023-03-14T05:08:07;11.10;1.00
1137;DHT22;557;48.466;7.950;2023-03-14T05:10:56;11.00;1.00
1137;DHT22;557;48.466;7.950;2023-03-14T05:13:44;11.00;1.00
1137;DHT22;557;48.466;7.950;2023-03-14T05:16:33;11.00;1.00
1137;DHT22;557;48.466;7.950;2023-03-14T05:19:20;11.00;1.00
1137;DHT22;557;48.466;7.950;2023-03-14T05:22:07;11.00;99.90
1137;DHT22;557;48.466;7.950;2023-03-14T05:24:55;11.00;1.00
1137;DHT22;557;48.466;7.950;2023-03-14T05:27:44;11.00;1.00
1137;DHT22;557;48.466;7.950;2023-03-14T05:30:33;11.00;1.00
1137;DHT22;557;48.466;7.950;2023-03-14T05:33:21;11.00;1.00
1137;DHT22;557;48.466;7.950;2023-03-14T05:36:09;11.00;1.00
1137;DHT22;557;48.466;7.950;2023-03-14T05:38:56;10.90;99.90
1137;DHT22;557;48.466;7.950;2023-03-14T05:41:43;11.00;1.00
1137;DHT22;557;48.466;7.950;2023-03-14T05:44:31;11.00;99.90
1137;DHT22;557;48.466;7.950;2023-03-14T05:47:18;11.10;99.90
1137;DHT22;557;48.466;7.950;2023-03-14T05:50:08;11.10;99.90
1137;DHT22;557;48.466;7.950;2023-03-14T05:52:55;11.10;99.90
1137;DHT22;557;48.466;7.950;2023-03-14T05:55:42;11.10;3.50
1137;DHT22;557;48.466;7.950;2023-03-14T05:58:30;11.10;7.10
1137;DHT22;557;48.466;7.950;2023-03-14T06:01:17;11.10;1.00
1137;DHT22;557;48.466;7.950;2023-03-14T06:04:05;11.00;1.00
1137;DHT22;557;48.466;7.950;2023-03-14T06:06:53;11.00;1.00
1137;DHT22;557;48.466;7.950;2023-03-14T06:09:41;11.00;1.00
1137;DHT22;557;48.466;7.950;2023-03-14T06:12:28;11.00;1.00
1137;DHT22;557;48.466;7.950;2023-03-14T06:15:15;11.00;1.00
1137;DHT22;557;48.466;7.950;2023-03-14T06:18:03;11.10;99.90
1137;DHT22;557;48.466;7.950;2023-03-14T06:20:53;11.10;99.90
1137;DHT22;557;48.466;7.950;2023-03-14T06:23:42;11.10;10.30
1137;DHT22;557;48.466;7.950;2023-03-14T06:26:30;11.10;1.00
1137;DHT22;557;48.466;7.950;2023-03-14T06:29:17;11.20;73.40
1137;DHT22;557;48.466;7.950;2023-03-14T06:32:05;11.20;99.90
1137;DHT22;557;48.466;7.950;2023-03-14T06:34:52;11.20;1.00
1137;DHT22;557;48.466;7.950;2023-03-14T06:37:40;11.30;1.00
1137;DHT22;557;48.466;7.950;2023-03-14T06:40:30;11.30;1.00
1137;DHT22;557;48.466;7.950;2023-03-14T06:43:17;11.30;99.90
1137;DHT22;557;48.466;7.950;2023-03-14T06:46:05;11.30;99.90
1137;DHT22;557;48.466;7.950;2023-03-14T06:48:52;11.40;99.90
1137;DHT22;557;48.466;7.950;2023-03-14T06:51:40;11.40;99.90
1137;DHT22;557;48.466;7.950;2023-03-14T06:54:27;11.40;99.90
1137;DHT22;557;48.466;7.950;2023-03-14T06:57:16;11.40;70.60
1137;DHT22;557;48.466;7.950;2023-03-14T07:00:04;11.50;81.20
1137;DHT22;557;48.466;7.950;2023-03-14T07:02:52;11.50;12.20
1137;DHT22;557;48.466;7.950;2023-03-14T07:05:39;11.50;1.00
1137;DHT22;557;48.466;7.950;2023-03-14T07:08:27;11.60;1.00
1137;DHT22;557;48.466;7.950;2023-03-14T07:11:14;11.60;1.00
1137;DHT22;557;48.466;7.950;2023-03-14T07:14:03;11.60;1.00
1137;DHT22;557;48.466;7.950;2023-03-14T07:16:51;11.60;1.00
1137;DHT22;557;48.466;7.950;2023-03-14T07:19:38;11.60;1.00
1137;DHT22;557;48.466;7.950;2023-03-14T07:22:26;11.60;99.90
1137;DHT22;557;48.466;7.950;2023-03-14T07:25:14;11.70;99.90
1137;DHT22;557;48.466;7.950;2023-03-14T07:28:01;11.70;1.00
1137;DHT22;557;48.466;7.950;2023-03-14T07:30:50;11.70;99.90
1137;DHT22;557;48.466;7.950;2023-03-14T07:33:37;11.80;99.90
1137;DHT22;557;48.466;7.950;2023-03-14T07:36:25;11.80;99.90
1137;DHT22;557;48.466;7.950;2023-03-14T07:39:12;11.90;99.90
1137;DHT22;557;48.466;7.950;2023-03-14T07:41:59;11.80;99.90
1137;DHT22;557;48.466;7.950;2023-03-14T07:44:47;11.80;3.50
1137;DHT22;557;48.466;7.950;2023-03-14T07:47:35;11.70;1.00
1137;DHT22;557;48.466;7.950;2023-03-14T07:50:23;11.80;1.00
1137;DHT22;557;48.466;7.950;2023-03-14T07:53:11;11.80;1.00
1137;DHT22;557;48.466;7.950;2023-03-14T07:55:58;11.90;99.90
1137;DHT22;557;48.466;7.950;2023-03-14T07:58:45;11.80;99.90
1137;DHT22;557;48.466;7.950;2023-03-14T08:01:33;12.00;99.90
1137;DHT22;557;48.466;7.950;2023-03-14T08:04:21;12.00;99.90
1137;DHT22;557;48.466;7.950;2023-03-14T08:07:09;12.10;99.90
1137;DHT22;557;48.466;7.950;2023-03-14T08:09:56;12.10;58.80
1137;DHT22;557;48.466;7.950;2023-03-14T08:12:43;12.10;99.90
1137;DHT22;557;48.466;7.950;2023-03-14T08:15:31;12.20;99.90
1137;DHT22;557;48.466;7.950;2023-03-14T08:18:18;12.30;99.90
1137;DHT22;557;48.466;7.950;2023-03-14T08:21:07;12.30;99.90
1137;DHT22;557;48.466;7.950;2023-03-14T08:23:54;12.30;99.90
1137;DHT22;557;48.466;7.950;2023-03-14T08:26:42;12.10;99.90
1137;DHT22;557;48.466;7.950;2023-03-14T08:29:29;12.10;99.90
1137;DHT22;557;48.466;7.950;2023-03-14T08:32:17;12.10;99.90
1137;DHT22;557;48.466;7.950;2023-03-14T08:35:07;12.10;99.90
1137;DHT22;557;48.466;7.950;2023-03-14T08:37:56;12.10;99.90
1137;DHT22;557;48.466;7.950;2023-03-14T08:40:43;12.10;99.90
1137;DHT22;557;48.466;7.950;2023-03-14T08:43:31;12.10;99.90
1137;DHT22;557;48.466;7.950;2023-03-14T08:46:18;12.10;99.90
1137;DHT22;557;48.466;7.950;2023-03-14T08:49:05;12.10;99.90
1137;DHT22;557;48.466;7.950;2023-03-14T08:51:52;12.20;99.90
1137;DHT22;557;48.466;7.950;2023-03-14T08:54:41;12.20;99.90
1137;DHT22;557;48.466;7.950;2023-03-14T08:57:29;12.30;99.90
1137;DHT22;557;48.466;7.950;2023-03-14T09:00:17;12.30;99.90
1137;DHT22;557;48.466;7.950;2023-03-14T09:03:04;12.30;99.90
1137;DHT22;557;48.466;7.950;2023-03-14T09:05:52;12.40;99.90
1137;DHT22;557;48.466;7.950;2023-03-14T09:08:39;12.50;99.90
1137;DHT22;557;48.466;7.950;2023-03-14T09:11:28;12.40;99.90
1137;DHT22;557;48.466;7.950;2023-03-14T09:14:15;12.30;99.90
1137;DHT22;557;48.466;7.950;2023-03-14T09:17:03;12.30;99.90
1137;DHT22;557;48.466;7.950;2023-03-14T09:19:51;12.20;99.90
1137;DHT22;557;48.466;7.950;2023-03-14T09:22:38;12.20;99.90
1137;DHT22;557;48.466;7.950;2023-03-14T09:25:25;12.20;99.90
1137;DHT22;557;48.466;7.950;2023-03-14T09:28:14;12.30;99.90
1137;DHT22;557;48.466;7.950;2023-03-14T09:31:06;12.30;99.90
1137;DHT22;557;48.466;7.950;2023-03-14T09:33:53;12.20;99.90
1137;DHT22;557;48.466;7.950;2023-03-14T09:36:41;12.20;99.90
1137;DHT22;557;48.466;7.950;2023-03-14T09:39:30;12.20;99.90
1137;DHT22;557;48.466;7.950;2023-03-14T09:42:20;12.10;99.90
1137;DHT22;557;48.466;7.950;2023-03-14T09:45:15;12.10;1.00
1137;DHT22;557;48.466;7.950;2023-03-14T09:48:05;12.00;1.00
1137;DHT22;557;48.466;7.950;2023-03-14T09:50:54;11.80;99.90
1137;DHT22;557;48.466;7.950;2023-03-14T09:53:44;11.70;1.00
1137;DHT22;557;48.466;7.950;2023-03-14T09:56:32;11.60;1.00
1137;DHT22;557;48.466;7.950;2023-03-14T09:59:21;11.30;99.90
1137;DHT22;557;48.466;7.950;2023-03-14T10:02:18;11.00;99.90
1137;DHT22;557;48.466;7.950;2023-03-14T10:05:08;10.90;1.00
1137;DHT22;557;48.466;7.950;2023-03-14T10:08:00;10.80;1.00
1137;DHT22;557;48.466;7.950;2023-03-14T10:10:48;10.70;1.00
1137;DHT22;557;48.466;7.950;2023-03-14T10:13:35;10.60;1.00
1137;DHT22;557;48.466;7.950;2023-03-14T10:16:29;10.60;1.00
1137;DHT22;557;48.466;7.950;2023-03-14T10:19:17;10.60;1.00
1137;DHT22;557;48.466;7.950;2023-03-14T10:22:05;10.50;1.00
1137;DHT22;557;48.466;7.950;2023-03-14T10:24:54;10.50;1.00
1137;DHT22;557;48.466;7.950;2023-03-14T10:27:45;10.50;1.00
1137;DHT22;557;48.466;7.950;2023-03-14T10:30:39;10.50;1.00
1137;DHT22;557;48.466;7.950;2023-03-14T10:33:31;10.60;1.00
1137;DHT22;557;48.466;7.950;2023-03-14T10:36:22;10.70;1.00
1137;DHT22;557;48.466;7.950;2023-03-14T10:39:44;10.80;1.00
1137;DHT22;557;48.466;7.950;2023-03-14T10:42:33;11.00;1.00
1137;DHT22;557;48.466;7.950;2023-03-14T10:45:36;11.00;1.00
1137;DHT22;557;48.466;7.950;2023-03-14T10:48:30;10.90;1.00
1137;DHT22;557;48.466;7.950;2023-03-14T10:51:25;10.90;1.00
1137;DHT22;557;48.466;7.950;2023-03-14T10:54:14;10.90;1.00
1137;DHT22;557;48.466;7.950;2023-03-14T10:57:04;10.80;1.00
1137;DHT22;557;48.466;7.950;2023-03-14T10:59:52;10.70;42.90
1137;DHT22;557;48.466;7.950;2023-03-14T11:02:53;10.60;71.40
1137;DHT22;557;48.466;7.950;2023-03-14T11:05:47;10.40;99.90
1137;DHT22;557;48.466;7.950;2023-03-14T11:08:44;10.10;99.90
1137;DHT22;557;48.466;7.950;2023-03-14T11:11:32;9.90;99.90
1137;DHT22;557;48.466;7.950;2023-03-14T11:14:34;9.40;99.90
1137;DHT22;557;48.466;7.950;2023-03-14T11:17:29;9.10;7.60
1137;DHT22;557;48.466;7.950;2023-03-14T11:20:27;9.10;4.00
1137;DHT22;557;48.466;7.950;2023-03-14T11:23:20;9.20;1.00
1137;DHT22;557;48.466;7.950;2023-03-14T11:26:20;9.30;99.90
1137;DHT22;557;48.466;7.950;2023-03-14T11:29:20;9.30;1.00
1137;DHT22;557;48.466;7.950;2023-03-14T11:32:13;9.40;1.00
1137;DHT22;557;48.466;7.950;2023-03-14T11:35:04;9.50;1.00
1137;DHT22;557;48.466;7.950;2023-03-14T11:38:01;9.50;1.00
1137;DHT22;557;48.466;7.950;2023-03-14T11:40:52;9.60;98.50
1137;DHT22;557;48.466;7.950;2023-03-14T11:43:42;9.80;99.90
1137;DHT22;557;48.466;7.950;2023-03-14T11:46:34;10.10;99.90
1137;DHT22;557;48.466;7.950;2023-03-14T11:49:30;10.40;99.90
1137;DHT22;557;48.466;7.950;2023-03-14T11:52:22;10.70;99.90
1137;DHT22;557;48.466;7.950;2023-03-14T11:55:17;10.90;1.00
1137;DHT22;557;48.466;7.950;2023-03-14T11:58:12;11.00;99.90
1137;DHT22;557;48.466;7.950;2023-03-14T12:01:07;11.20;1.00
1137;DHT22;557;48.466;7.950;2023-03-14T12:04:02;11.30;99.90
1137;DHT22;557;48.466;7.950;2023-03-14T12:06:56;11.30;99.90
1137;DHT22;557;48.466;7.950;2023-03-14T12:09:44;11.00;99.90
1137;DHT22;557;48.466;7.950;2023-03-14T12:12:32;11.10;99.90
1137;DHT22;557;48.466;7.950;2023-03-14T12:15:21;11.00;99.90
1137;DHT22;557;48.466;7.950;2023-03-14T12:18:19;11.00;99.90
1137;DHT22;557;48.466;7.950;2023-03-14T12:21:08;10.80;99.90
1137;DHT22;557;48.466;7.950;2023-03-14T12:23:57;10.70;99.90
1137;DHT22;557;48.466;7.950;2023-03-14T12:26:52;10.70;99.90
1137;DHT22;557;48.466;7.950;2023-03-14T12:29:57;10.50;99.90
1137;DHT22;557;48.466;7.950;2023-03-14T12:36:52;10.00;99.90
1137;DHT22;557;48.466;7.950;2023-03-14T12:39:49;10.00;99.90
1137;DHT22;557;48.466;7.950;2023-03-14T12:42:54;10.10;99.90
1137;DHT22;557;48.466;7.950;2023-03-14T12:46:09;10.20;99.90
1137;DHT22;557;48.466;7.950;2023-03-14T12:49:04;10.30;99.90
1137;DHT22;557;48.466;7.950;2023-03-14T12:51:58;10.40;99.90
1137;DHT22;557;48.466;7.950;2023-03-14T12:54:48;10.40;99.90
1137;DHT22;557;48.466;7.950;2023-03-14T12:57:41;10.40;99.90
1137;DHT22;557;48.466;7.950;2023-03-14T13:00:31;10.50;99.90
1137;DHT22;557;48.466;7.950;2023-03-14T13:03:23;10.40;99.90
1137;DHT22;557;48.466;7.950;2023-03-14T13:06:47;10.30;99.90
1137;DHT22;557;48.466;7.950;2023-03-14T13:09:53;10.40;99.90
1137;DHT22;557;48.466;7.950;2023-03-14T13:12:47;10.60;99.90
1137;DHT22;557;48.466;7.950;2023-03-14T13:15:38;10.60;99.90
1137;DHT22;557;48.466;7.950;2023-03-14T13:18:32;10.60;99.90
1137;DHT22;557;48.466;7.950;2023-03-14T13:21:22;10.60;99.90
1137;DHT22;557;48.466;7.950;2023-03-14T13:24:21;10.50;99.90
1137;DHT22;557;48.466;7.950;2023-03-14T13:27:17;10.50;99.90
1137;DHT22;557;48.466;7.950;2023-03-14T13:30:15;10.50;99.90
1137;DHT22;557;48.466;7.950;2023-03-14T13:33:04;10.70;99.90
1137;DHT22;557;48.466;7.950;2023-03-14T13:35:57;10.70;99.90
1137;DHT22;557;48.466;7.950;2023-03-14T13:38:44;10.80;99.90
1137;DHT22;557;48.466;7.950;2023-03-14T13:41:32;10.70;99.90
1137;DHT22;557;48.466;7.950;2023-03-14T13:44:24;10.60;99.90
1137;DHT22;557;48.466;7.950;2023-03-14T13:47:16;10.70;99.90
1137;DHT22;557;48.466;7.950;2023-03-14T13:50:04;11.50;99.90
1137;DHT22;557;48.466;7.950;2023-03-14T13:53:00;13.00;99.90
1137;DHT22;557;48.466;7.950;2023-03-14T13:55:48;14.50;95.80
1137;DHT22;557;48.466;7.950;2023-03-14T13:58:38;14.30;79.10
1137;DHT22;557;48.466;7.950;2023-03-14T14:01:27;13.40;63.20
1137;DHT22;557;48.466;7.950;2023-03-14T14:04:19;13.40;61.50
1137;DHT22;557;48.466;7.950;2023-03-14T14:07:09;13.20;56.00
1137;DHT22;557;48.466;7.950;2023-03-14T14:09:59;12.80;53.80
1137;DHT22;557;48.466;7.950;2023-03-14T14:12:50;12.80;51.60
1137;DHT22;557;48.466;7.950;2023-03-14T14:15:41;13.10;51.90
1137;DHT22;557;48.466;7.950;2023-03-14T14:18:31;12.50;47.00
1137;DHT22;557;48.466;7.950;2023-03-14T14:21:19;11.60;42.50
1137;DHT22;557;48.466;7.950;2023-03-14T14:24:08;11.20;41.10
1137;DHT22;557;48.466;7.950;2023-03-14T14:27:01;11.00;43.90
1137;DHT22;557;48.466;7.950;2023-03-14T14:29:57;11.00;45.40
1137;DHT22;557;48.466;7.950;2023-03-14T14:32:46;10.70;44.00
1137;DHT22;557;48.466;7.950;2023-03-14T14:35:35;10.60;44.00
1137;DHT22;557;48.466;7.950;2023-03-14T14:38:22;10.40;54.30
1137;DHT22;557;48.466;7.950;2023-03-14T14:41:11;10.30;46.10
1137;DHT22;557;48.466;7.950;2023-03-14T14:44:00;10.30;45.50
1137;DHT22;557;48.466;7.950;2023-03-14T14:46:49;10.10;48.10
1137;DHT22;557;48.466;7.950;2023-03-14T14:49:37;10.10;53.40
1137;DHT22;557;48.466;7.950;2023-03-14T14:52:36;10.20;58.70
1137;DHT22;557;48.466;7.950;2023-03-14T14:55:29;11.10;75.30
1137;DHT22;557;48.466;7.950;2023-03-14T14:58:22;11.40;57.20
1137;DHT22;557;48.466;7.950;2023-03-14T15:01:15;11.80;57.30
1137;DHT22;557;48.466;7.950;2023-03-14T15:04:09;11.50;57.30
1137;DHT22;557;48.466;7.950;2023-03-14T15:06:58;11.00;62.40
1137;DHT22;557;48.466;7.950;2023-03-14T15:09:45;10.60;53.10
1137;DHT22;557;48.466;7.950;2023-03-14T15:12:33;10.40;55.80
1137;DHT22;557;48.466;7.950;2023-03-14T15:15:20;10.30;57.40
1137;DHT22;557;48.466;7.950;2023-03-14T15:18:13;10.40;56.30
1137;DHT22;557;48.466;7.950;2023-03-14T15:21:01;10.30;63.20
1137;DHT22;557;48.466;7.950;2023-03-14T15:23:48;10.20;57.30
1137;DHT22;557;48.466;7.950;2023-03-14T15:26:36;10.10;60.90
1137;DHT22;557;48.466;7.950;2023-03-14T15:29:23;10.00;83.40
1137;DHT22;557;48.466;7.950;2023-03-14T15:32:12;10.00;83.70
1137;DHT22;557;48.466;7.950;2023-03-14T15:35:01;10.00;96.60
1137;DHT22;557;48.466;7.950;2023-03-14T15:37:48;10.00;93.90
1137;DHT22;557;48.466;7.950;2023-03-14T15:40:36;10.00;97.90
1137;DHT22;557;48.466;7.950;2023-03-14T15:43:23;9.90;99.90
1137;DHT22;557;48.466;7.950;2023-03-14T15:46:11;9.90;99.90
1137;DHT22;557;48.466;7.950;2023-03-14T15:49:00;9.90;99.90
1137;DHT22;557;48.466;7.950;2023-03-14T15:51:48;9.90;99.90
1137;DHT22;557;48.466;7.950;2023-03-14T15:54:36;9.90;99.90
1137;DHT22;557;48.466;7.950;2023-03-14T15:57:23;9.90;99.90
1137;DHT22;557;48.466;7.950;2023-03-14T16:00:12;9.90;99.90
1137;DHT22;557;48.466;7.950;2023-03-14T16:03:01;9.80;99.90
1137;DHT22;557;48.466;7.950;2023-03-14T16:05:49;9.80;99.90
1137;DHT22;557;48.466;7.950;2023-03-14T16:08:37;9.70;99.90
1137;DHT22;557;48.466;7.950;2023-03-14T16:11:25;9.70;99.90
1137;DHT22;557;48.466;7.950;2023-03-14T16:14:12;9.60;99.90
1137;DHT22;557;48.466;7.950;2023-03-14T16:17:00;9.30;1.00
1137;DHT22;557;48.466;7.950;2023-03-14T16:19:47;8.90;54.70
1137;DHT22;557;48.466;7.950;2023-03-14T16:22:34;8.50;99.90
1137;DHT22;557;48.466;7.950;2023-03-14T16:25:23;8.10;99.90
1137;DHT22;557;48.466;7.950;2023-03-14T16:28:10;7.70;1.00
1137;DHT22;557;48.466;7.950;2023-03-14T16:31:01;7.40;1.00
1137;DHT22;557;48.466;7.950;2023-03-14T16:33:48;7.30;42.50
1137;DHT22;557;48.466;7.950;2023-03-14T16:36:36;7.20;67.70
1137;DHT22;557;48.466;7.950;2023-03-14T16:39:23;7.10;94.90
1137;DHT22;557;48.466;7.950;2023-03-14T16:42:15;7.50;31.50
1137;DHT22;557;48.466;7.950;2023-03-14T16:45:03;9.40;1.00
1137;DHT22;557;48.466;7.950;2023-03-14T16:47:51;10.80;1.00
1137;DHT22;557;48.466;7.950;2023-03-14T16:50:39;11.70;1.00
1137;DHT22;557;48.466;7.950;2023-03-14T16:53:26;11.60;1.00
1137;DHT22;557;48.466;7.950;2023-03-14T16:56:15;10.80;99.90
1137;DHT22;557;48.466;7.950;2023-03-14T16:59:03;9.80;1.00
1137;DHT22;557;48.466;7.950;2023-03-14T17:01:54;8.90;99.90
1137;DHT22;557;48.466;7.950;2023-03-14T17:04:41;8.30;1.00
1137;DHT22;557;48.466;7.950;2023-03-14T17:07:29;8.00;1.00
1137;DHT22;557;48.466;7.950;2023-03-14T17:10:16;7.60;1.00
1137;DHT22;557;48.466;7.950;2023-03-14T17:13:03;7.50;1.00
1137;DHT22;557;48.466;7.950;2023-03-14T17:15:53;7.40;1.00
1137;DHT22;557;48.466;7.950;2023-03-14T17:18:41;7.30;1.00
1137;DHT22;557;48.466;7.950;2023-03-14T17:21:28;7.30;1.00
1137;DHT22;557;48.466;7.950;2023-03-14T17:24:16;7.20;1.00
1137;DHT22;557;48.466;7.950;2023-03-14T17:27:04;7.10;1.00
1137;DHT22;557;48.466;7.950;2023-03-14T17:29:52;7.00;1.00
1137;DHT22;557;48.466;7.950;2023-03-14T17:32:41;7.00;1.00
1137;DHT22;557;48.466;7.950;2023-03-14T17:35:28;6.90;1.00
1137;DHT22;557;48.466;7.950;2023-03-14T17:38:16;6.90;99.90
1137;DHT22;557;48.466;7.950;2023-03-14T17:41:06;6.90;99.90
1137;DHT22;557;48.466;7.950;2023-03-14T17:43:53;6.90;99.90
1137;DHT22;557;48.466;7.950;2023-03-14T17:46:42;6.90;99.90
1137;DHT22;557;48.466;7.950;2023-03-14T17:49:30;6.90;99.90
1137;DHT22;557;48.466;7.950;2023-03-14T17:52:18;6.90;99.90
1137;DHT22;557;48.466;7.950;2023-03-14T17:55:07;6.90;99.90
1137;DHT22;557;48.466;7.950;2023-03-14T17:57:54;6.90;99.90
1137;DHT22;557;48.466;7.950;2023-03-14T18:00:42;6.90;99.90
1137;DHT22;557;48.466;7.950;2023-03-14T18:03:29;6.90;99.90
1137;DHT22;557;48.466;7.950;2023-03-14T18:06:18;6.90;99.90
1137;DHT22;557;48.466;7.950;2023-03-14T18:09:05;6.80;1.00
1137;DHT22;557;48.466;7.950;2023-03-14T18:11:52;6.80;99.90
1137;DHT22;557;48.466;7.950;2023-03-14T18:14:40;6.80;1.00
1137;DHT22;557;48.466;7.950;2023-03-14T18:17:29;6.90;99.90
1137;DHT22;557;48.466;7.950;2023-03-14T18:20:16;6.90;99.90
1137;DHT22;557;48.466;7.950;2023-03-14T18:23:05;6.90;1.00
1137;DHT22;557;48.466;7.950;2023-03-14T18:25:54;6.90;99.90
1137;DHT22;557;48.466;7.950;2023-03-14T18:28:41;7.00;1.00
1137;DHT22;557;48.466;7.950;2023-03-14T18:31:29;7.00;99.90
1137;DHT22;557;48.466;7.950;2023-03-14T18:34:19;7.00;99.90
1137;DHT22;557;48.466;7.950;2023-03-14T18:37:07;7.00;99.90
1137;DHT22;557;48.466;7.950;2023-03-14T18:39:56;7.00;1.00
1137;DHT22;557;48.466;7.950;2023-03-14T18:42:43;7.00;1.00
1137;DHT22;557;48.466;7.950;2023-03-14T18:45:31;7.00;99.90
1137;DHT22;557;48.466;7.950;2023-03-14T18:48:18;7.00;1.00
1137;DHT22;557;48.466;7.950;2023-03-14T18:51:05;6.90;1.00
1137;DHT22;557;48.466;7.950;2023-03-14T18:53:53;6.90;99.90
1137;DHT22;557;48.466;7.950;2023-03-14T18:56:42;6.90;1.00
1137;DHT22;557;48.466;7.950;2023-03-14T18:59:29;7.00;1.00